sensor_id;sensor_type;location;lat;lon;timestamp;pressure;altitude;pressure_sealevel;temperature;humidity
45525;BME280;31437;58.350;13.828;2023-03-13T00:01:56;99566.66;;;-5.64;100.00
45525;BME280;31437;58.350;13.828;2023-03-13T00:04:22;99567.50;;;-5.61;100.00
45525;BME280;31437;58.350;13.828;2023-03-13T00:06:47;99563.25;;;-5.56;100.00
45525;BME280;31437;58.350;13.828;2023-03-13T00:09:13;99561.53;;;-5.52;100.00
45525;BME280;31437;58.350;13.828;2023-03-13T00:11:39;99559.81;;;-5.49;100.00
45525;BME280;31437;58.350;13.828;2023-03-13T00:14:04;99548.75;;;-5.46;100.00
45525;BME280;31437;58.350;13.828;2023-03-13T00:16:30;99538.53;;;-5.43;100.00
45525;BME280;31437;58.350;13.828;2023-03-13T00:18:56;99531.72;;;-5.39;100.00
45525;BME280;31437;58.350;13.828;2023-03-13T00:21:22;99524.88;;;-5.39;100.00
45525;BME280;31437;58.350;13.828;2023-03-13T00:23:48;99520.66;;;-5.35;100.00
45525;BME280;31437;58.350;13.828;2023-03-13T00:26:14;99494.19;;;-5.33;100.00
45525;BME280;31437;58.350;13.828;2023-03-13T00:28:41;99483.97;;;-5.31;100.00
45525;BME280;31437;58.350;13.828;2023-03-13T00:33:32;99472.06;;;-5.29;100.00
45525;BME280;31437;58.350;13.828;2023-03-13T00:35:58;99472.88;;;-5.27;100.00
45525;BME280;31437;58.350;13.828;2023-03-13T00:38:24;99473.75;;;-5.25;100.00
45525;BME280;31437;58.350;13.828;2023-03-13T00:40:57;99478.88;;;-5.20;100.00
45525;BME280;31437;58.350;13.828;2023-03-13T00:43:22;99457.53;;;-5.18;100.00
45525;BME280;31437;58.350;13.828;2023-03-13T00:45:47;99446.44;;;-5.15;100.00
45525;BME280;31437;58.350;13.828;2023-03-13T00:48:12;99444.72;;;-5.12;100.00
45525;BME280;31437;58.350;13.828;2023-03-13T00:50:39;99436.19;;;-5.09;100.00
45525;BME280;31437;58.350;13.828;2023-03-13T00:53:04;99444.72;;;-5.07;100.00
45525;BME280;31437;58.350;13.828;2023-03-13T00:55:29;99436.19;;;-5.05;100.00
45525;BME280;31437;58.350;13.828;2023-03-13T00:57:55;99425.09;;;-5.02;100.00
45525;BME280;31437;58.350;13.828;2023-03-13T01:00:20;99418.25;;;-5.03;100.00
45525;BME280;31437;58.350;13.828;2023-03-13T01:02:45;99405.47;;;-5.02;100.00
45525;BME280;31437;58.350;13.828;2023-03-13T01:05:10;99394.38;;;-5.00;100.00
45525;BME280;31437;58.350;13.828;2023-03-13T01:07:37;99396.94;;;-5.00;100.00
45525;BME280;31437;58.350;13.828;2023-03-13T01:10:02;99389.28;;;-4.99;100.00
45525;BME280;31437;58.350;13.828;2023-03-13T01:12:28;99391.84;;;-4.99;100.00
45525;BME280;31437;58.350;13.828;2023-03-13T01:14:53;99388.44;;;-4.99;100.00
45525;BME280;31437;58.350;13.828;2023-03-13T01:17:19;99379.03;;;-4.99;100.00
45525;BME280;31437;58.350;13.828;2023-03-13T01:19:44;99367.09;;;-4.98;100.00
45525;BME280;31437;58.350;13.828;2023-03-13T01:22:09;99353.47;;;-4.99;100.00
45525;BME280;31437;58.350;13.828;2023-03-13T01:24:37;99351.75;;;-4.98;100.00
45525;BME280;31437;58.350;13.828;2023-03-13T01:27:02;99351.75;;;-4.98;100.00
45525;BME280;31437;58.350;13.828;2023-03-13T01:29:27;99344.91;;;-4.95;100.00
45525;BME280;31437;58.350;13.828;2023-03-13T01:31:53;99332.09;;;-4.92;100.00
45525;BME280;31437;58.350;13.828;2023-03-13T01:34:18;99310.75;;;-4.89;100.00
45525;BME280;31437;58.350;13.828;2023-03-13T01:36:43;99306.50;;;-4.87;100.00
45525;BME280;31437;58.350;13.828;2023-03-13T01:39:09;99303.91;;;-4.84;100.00
45525;BME280;31437;58.350;13.828;2023-03-13T01:41:34;99285.16;;;-4.82;100.00
45525;BME280;31437;58.350;13.828;2023-03-13T01:44:01;99271.50;;;-4.79;100.00
45525;BME280;31437;58.350;13.828;2023-03-13T01:46:27;99260.38;;;-4.78;100.00
45525;BME280;31437;58.350;13.828;2023-03-13T01:53:46;99216.84;;;-4.70;100.00
45525;BME280;31437;58.350;13.828;2023-03-13T01:56:14;99164.91;;;-4.85;100.00
45525;BME280;31437;58.350;13.828;2023-03-13T01:58:41;99181.81;;;-4.67;100.00
45525;BME280;31437;58.350;13.828;2023-03-13T02:01:06;99157.06;;;-4.66;100.00
45525;BME280;31437;58.350;13.828;2023-03-13T02:03:32;99154.47;;;-4.65;100.00
45525;BME280;31437;58.350;13.828;2023-03-13T02:05:58;99148.53;;;-4.64;100.00
45525;BME280;31437;58.350;13.828;2023-03-13T02:14:13;99108.38;;;-4.59;100.00
45525;BME280;31437;58.350;13.828;2023-03-13T02:16:39;99104.06;;;-4.57;100.00
45525;BME280;31437;58.350;13.828;2023-03-13T02:20:06;99101.47;;;-4.53;100.00
45525;BME280;31437;58.350;13.828;2023-03-13T02:24:36;99077.56;;;-4.49;100.00
45525;BME280;31437;58.350;13.828;2023-03-13T02:27:04;99076.69;;;-4.47;100.00
45525;BME280;31437;58.350;13.828;2023-03-13T02:29:29;99069.81;;;-4.43;100.00
45525;BME280;31437;58.350;13.828;2023-03-13T02:31:55;99045.94;;;-4.44;100.00
45525;BME280;31437;58.350;13.828;2023-03-13T02:34:22;99038.16;;;-4.38;100.00
45525;BME280;31437;58.350;13.828;2023-03-13T02:36:48;99029.59;;;-4.35;100.00
45525;BME280;31437;58.350;13.828;2023-03-13T02:39:14;99022.72;;;-4.31;100.00
45525;BME280;31437;58.350;13.828;2023-03-13T02:41:41;99013.28;;;-4.28;100.00
45525;BME280;31437;58.350;13.828;2023-03-13T02:44:06;99015.75;;;-4.22;100.00
45525;BME280;31437;58.350;13.828;2023-03-13T02:46:42;99006.31;;;-4.18;100.00
45525;BME280;31437;58.350;13.828;2023-03-13T02:49:21;99002.03;;;-4.15;100.00
45525;BME280;31437;58.350;13.828;2023-03-13T02:51:47;99008.75;;;-4.09;100.00
45525;BME280;31437;58.350;13.828;2023-03-13T02:54:17;99000.19;;;-4.05;100.00
45525;BME280;31437;58.350;13.828;2023-03-13T02:56:44;98994.13;;;-4.01;100.00
45525;BME280;31437;58.350;13.828;2023-03-13T02:59:10;98985.56;;;-3.97;100.00
45525;BME280;31437;58.350;13.828;2023-03-13T03:01:36;98983.75;;;-3.92;100.00
45525;BME280;31437;58.350;13.828;2023-03-13T03:04:01;98980.28;;;-3.88;100.00
45525;BME280;31437;58.350;13.828;2023-03-13T03:06:26;98977.69;;;-3.84;100.00
45525;BME280;31437;58.350;13.828;2023-03-13T03:08:52;98960.53;;;-3.82;100.00
45525;BME280;31437;58.350;13.828;2023-03-13T03:11:17;98959.63;;;-3.78;100.00
45525;BME280;31437;58.350;13.828;2023-03-13T03:13:42;98947.63;;;-3.75;100.00
45525;BME280;31437;58.350;13.828;2023-03-13T03:16:11;98931.34;;;-3.72;100.00
45525;BME280;31437;58.350;13.828;2023-03-13T03:18:39;98934.69;;;-3.69;100.00
45525;BME280;31437;58.350;13.828;2023-03-13T03:21:04;98916.69;;;-3.66;100.00
45525;BME280;31437;58.350;13.828;2023-03-13T03:23:33;98911.53;;;-3.62;100.00
45525;BME280;31437;58.350;13.828;2023-03-13T03:25:59;98925.13;;;-3.57;100.00
45525;BME280;31437;58.350;13.828;2023-03-13T03:28:24;98920.81;;;-3.55;100.00
45525;BME280;31437;58.350;13.828;2023-03-13T03:30:49;98910.50;;;-3.52;100.00
45525;BME280;31437;58.350;13.828;2023-03-13T03:33:17;98902.75;;;-3.49;100.00
45525;BME280;31437;58.350;13.828;2023-03-13T03:35:43;98889.88;;;-3.46;100.00
45525;BME280;31437;58.350;13.828;2023-03-13T03:38:08;98880.47;;;-3.44;100.00
45525;BME280;31437;58.350;13.828;2023-03-13T03:40:33;98876.97;;;-3.42;100.00
45525;BME280;31437;58.350;13.828;2023-03-13T03:42:59;98869.25;;;-3.40;100.00
45525;BME280;31437;58.350;13.828;2023-03-13T03:45:24;98866.63;;;-3.37;100.00
45525;BME280;31437;58.350;13.828;2023-03-13T03:47:50;98851.19;;;-3.35;100.00
45525;BME280;31437;58.350;13.828;2023-03-13T03:50:15;98846.91;;;-3.33;100.00
45525;BME280;31437;58.350;13.828;2023-03-13T03:52:40;98845.19;;;-3.33;100.00
45525;BME280;31437;58.350;13.828;2023-03-13T03:55:06;98831.44;;;-3.30;100.00
45525;BME280;31437;58.350;13.828;2023-03-13T03:57:31;98834.00;;;-3.29;100.00
45525;BME280;31437;58.350;13.828;2023-03-13T03:59:56;98827.97;;;-3.26;100.00
45525;BME280;31437;58.350;13.828;2023-03-13T04:02:22;98817.72;;;-3.26;100.00
45525;BME280;31437;58.350;13.828;2023-03-13T04:04:47;98819.34;;;-3.24;100.00
45525;BME280;31437;58.350;13.828;2023-03-13T04:07:12;98811.63;;;-3.22;100.00
45525;BME280;31437;58.350;13.828;2023-03-13T04:09:37;98809.06;;;-3.21;100.00
45525;BME280;31437;58.350;13.828;2023-03-13T04:12:03;98804.72;;;-3.18;100.00
45525;BME280;31437;58.350;13.828;2023-03-13T04:14:28;98799.56;;;-3.17;100.00
45525;BME280;31437;58.350;13.828;2023-03-13T04:16:53;98790.97;;;-3.16;100.00
45525;BME280;31437;58.350;13.828;2023-03-13T04:19:19;98792.66;;;-3.15;100.00
45525;BME280;31437;58.350;13.828;2023-03-13T04:21:44;98788.34;;;-3.13;100.00
45525;BME280;31437;58.350;13.828;2023-03-13T04:24:09;98777.19;;;-3.12;100.00
45525;BME280;31437;58.350;13.828;2023-03-13T04:26:34;98777.19;;;-3.10;100.00
45525;BME280;31437;58.350;13.828;2023-03-13T04:29:00;98770.31;;;-3.08;100.00
45525;BME280;31437;58.350;13.828;2023-03-13T04:31:25;98762.56;;;-3.07;100.00
45525;BME280;31437;58.350;13.828;2023-03-13T04:33:51;98748.88;;;-3.06;100.00
45525;BME280;31437;58.350;13.828;2023-03-13T04:36:17;98727.47;;;-3.06;100.00
45525;BME280;31437;58.350;13.828;2023-03-13T04:38:42;98715.44;;;-3.03;100.00
45525;BME280;31437;58.350;13.828;2023-03-13T04:41:07;98716.25;;;-3.01;100.00
45525;BME280;31437;58.350;13.828;2023-03-13T04:43:32;98710.25;;;-3.00;100.00
45525;BME280;31437;58.350;13.828;2023-03-13T04:45:58;98704.31;;;-3.02;100.00
45525;BME280;31437;58.350;13.828;2023-03-13T04:48:23;98703.34;;;-2.98;100.00
45525;BME280;31437;58.350;13.828;2023-03-13T04:50:48;98707.56;;;-2.95;100.00
45525;BME280;31437;58.350;13.828;2023-03-13T04:53:14;98705.81;;;-2.93;100.00
45525;BME280;31437;58.350;13.828;2023-03-13T04:55:39;98694.66;;;-2.92;100.00
45525;BME280;31437;58.350;13.828;2023-03-13T04:58:05;98694.63;;;-2.90;100.00
45525;BME280;31437;58.350;13.828;2023-03-13T05:00:30;98698.00;;;-2.88;100.00
45525;BME280;31437;58.350;13.828;2023-03-13T05:02:55;98688.53;;;-2.86;100.00
45525;BME280;31437;58.350;13.828;2023-03-13T05:05:20;98675.72;;;-2.86;100.00
45525;BME280;31437;58.350;13.828;2023-03-13T05:07:46;98665.41;;;-2.85;100.00
45525;BME280;31437;58.350;13.828;2023-03-13T05:10:11;98673.06;;;-2.83;100.00
45525;BME280;31437;58.350;13.828;2023-03-13T05:12:36;98663.63;;;-2.83;100.00
45525;BME280;31437;58.350;13.828;2023-03-13T05:15:02;98661.06;;;-2.81;100.00
45525;BME280;31437;58.350;13.828;2023-03-13T05:17:27;98647.31;;;-2.80;100.00
45525;BME280;31437;58.350;13.828;2023-03-13T05:19:52;98652.44;;;-2.79;100.00
45525;BME280;31437;58.350;13.828;2023-03-13T05:22:17;98637.88;;;-2.78;100.00
45525;BME280;31437;58.350;13.828;2023-03-13T05:24:43;98634.38;;;-2.76;100.00
45525;BME280;31437;58.350;13.828;2023-03-13T05:27:08;98624.94;;;-2.73;100.00
45525;BME280;31437;58.350;13.828;2023-03-13T05:29:33;98624.88;;;-2.72;100.00
45525;BME280;31437;58.350;13.828;2023-03-13T05:31:59;98613.72;;;-2.71;100.00
45525;BME280;31437;58.350;13.828;2023-03-13T05:34:24;98612.84;;;-2.70;100.00
45525;BME280;31437;58.350;13.828;2023-03-13T05:36:49;98609.38;;;-2.67;100.00
45525;BME280;31437;58.350;13.828;2023-03-13T05:39:14;98593.03;;;-2.65;100.00
45525;BME280;31437;58.350;13.828;2023-03-13T05:41:40;98583.56;;;-2.63;100.00
45525;BME280;31437;58.350;13.828;2023-03-13T05:44:05;98576.69;;;-2.61;100.00
45525;BME280;31437;58.350;13.828;2023-03-13T05:46:30;98548.78;;;-2.75;100.00
45525;BME280;31437;58.350;13.828;2023-03-13T05:48:56;98565.44;;;-2.57;100.00
45525;BME280;31437;58.350;13.828;2023-03-13T05:51:21;98557.69;;;-2.55;100.00
45525;BME280;31437;58.350;13.828;2023-03-13T05:53:47;98555.91;;;-2.53;100.00
45525;BME280;31437;58.350;13.828;2023-03-13T05:56:12;98544.72;;;-2.51;100.00
45525;BME280;31437;58.350;13.828;2023-03-13T05:58:37;98537.81;;;-2.48;100.00
45525;BME280;31437;58.350;13.828;2023-03-13T06:01:09;98525.75;;;-2.45;100.00
45525;BME280;31437;58.350;13.828;2023-03-13T06:03:34;98523.06;;;-2.42;100.00
45525;BME280;31437;58.350;13.828;2023-03-13T06:06:00;98521.25;;;-2.38;100.00
45525;BME280;31437;58.350;13.828;2023-03-13T06:08:25;98516.06;;;-2.35;100.00
45525;BME280;31437;58.350;13.828;2023-03-13T06:10:51;98511.63;;;-2.30;100.00
45525;BME280;31437;58.350;13.828;2023-03-13T06:13:17;98506.34;;;-2.25;100.00
45525;BME280;31437;58.350;13.828;2023-03-13T06:15:42;98496.81;;;-2.20;100.00
45525;BME280;31437;58.350;13.828;2023-03-13T06:18:08;98497.47;;;-2.15;100.00
45525;BME280;31437;58.350;13.828;2023-03-13T06:20:33;98492.16;;;-2.09;100.00
45525;BME280;31437;58.350;13.828;2023-03-13T06:22:58;98486.84;;;-2.03;100.00
45525;BME280;31437;58.350;13.828;2023-03-13T06:25:24;98491.84;;;-1.98;100.00
45525;BME280;31437;58.350;13.828;2023-03-13T06:27:49;98486.63;;;-1.95;100.00
45525;BME280;31437;58.350;13.828;2023-03-13T06:30:15;98471.91;;;-1.90;100.00
45525;BME280;31437;58.350;13.828;2023-03-13T06:32:40;98465.72;;;-1.85;100.00
45525;BME280;31437;58.350;13.828;2023-03-13T06:35:05;98461.31;;;-1.81;100.00
45525;BME280;31437;58.350;13.828;2023-03-13T06:37:32;98453.47;;;-1.76;100.00
45525;BME280;31437;58.350;13.828;2023-03-13T06:39:58;98442.13;;;-1.71;100.00
45525;BME280;31437;58.350;13.828;2023-03-13T06:42:23;98433.38;;;-1.65;100.00
45525;BME280;31437;58.350;13.828;2023-03-13T06:44:48;98420.31;;;-1.59;100.00
45525;BME280;31437;58.350;13.828;2023-03-13T06:47:13;98426.16;;;-1.54;100.00
45525;BME280;31437;58.350;13.828;2023-03-13T06:49:39;98413.16;;;-1.49;100.00
45525;BME280;31437;58.350;13.828;2023-03-13T06:52:04;98411.25;;;-1.44;100.00
45525;BME280;31437;58.350;13.828;2023-03-13T06:54:29;98399.16;;;-1.41;100.00
45525;BME280;31437;58.350;13.828;2023-03-13T06:56:55;98392.00;;;-1.32;100.00
45525;BME280;31437;58.350;13.828;2023-03-13T06:59:20;98388.34;;;-1.25;100.00
45525;BME280;31437;58.350;13.828;2023-03-13T07:01:45;98376.09;;;-1.19;100.00
45525;BME280;31437;58.350;13.828;2023-03-13T07:04:11;98376.69;;;-1.12;100.00
45525;BME280;31437;58.350;13.828;2023-03-13T07:06:36;98370.50;;;-1.06;100.00
45525;BME280;31437;58.350;13.828;2023-03-13T07:09:02;98360.84;;;-1.00;100.00
45525;BME280;31437;58.350;13.828;2023-03-13T07:11:29;98358.09;;;-0.95;100.00
45525;BME280;31437;58.350;13.828;2023-03-13T07:13:54;98355.34;;;-0.90;100.00
45525;BME280;31437;58.350;13.828;2023-03-13T07:16:20;98349.06;;;-0.83;100.00
45525;BME280;31437;58.350;13.828;2023-03-13T07:18:45;98336.88;;;-0.78;100.00
45525;BME280;31437;58.350;13.828;2023-03-13T07:21:11;98333.16;;;-0.71;100.00
45525;BME280;31437;58.350;13.828;2023-03-13T07:23:37;98330.41;;;-0.66;100.00
45525;BME280;31437;58.350;13.828;2023-03-13T07:26:03;98328.50;;;-0.61;100.00
45525;BME280;31437;58.350;13.828;2023-03-13T07:28:29;98317.97;;;-0.55;100.00
45525;BME280;31437;58.350;13.828;2023-03-13T07:31:02;98324.66;;;-0.51;100.00
45525;BME280;31437;58.350;13.828;2023-03-13T07:33:28;98315.94;;;-0.47;100.00
45525;BME280;31437;58.350;13.828;2023-03-13T07:35:53;98307.97;;;-0.41;100.00
45525;BME280;31437;58.350;13.828;2023-03-13T07:38:18;98310.34;;;-0.36;100.00
45525;BME280;31437;58.350;13.828;2023-03-13T07:40:48;98309.28;;;-0.31;100.00
45525;BME280;31437;58.350;13.828;2023-03-13T07:43:14;98309.03;;;-0.25;100.00
45525;BME280;31437;58.350;13.828;2023-03-13T07:45:48;98302.91;;;-0.22;100.00
45525;BME280;31437;58.350;13.828;2023-03-13T07:48:13;98299.28;;;-0.18;100.00
45525;BME280;31437;58.350;13.828;2023-03-13T07:50:38;98291.38;;;-0.13;100.00
45525;BME280;31437;58.350;13.828;2023-03-13T07:53:04;98291.22;;;-0.09;100.00
45525;BME280;31437;58.350;13.828;2023-03-13T07:55:29;98278.25;;;-0.07;100.00
45525;BME280;31437;58.350;13.828;2023-03-13T07:57:54;98273.66;;;-0.01;100.00
45525;BME280;31437;58.350;13.828;2023-03-13T08:00:19;98273.41;;;0.06;100.00
45525;BME280;31437;58.350;13.828;2023-03-13T08:02:45;98270.66;;;0.10;100.00
45525;BME280;31437;58.350;13.828;2023-03-13T08:05:10;98268.72;;;0.15;100.00
45525;BME280;31437;58.350;13.828;2023-03-13T08:07:35;98264.19;;;0.20;100.00
45525;BME280;31437;58.350;13.828;2023-03-13T08:10:01;98259.75;;;0.24;100.00
45525;BME280;31437;58.350;13.828;2023-03-13T08:12:26;98251.94;;;0.26;100.00
45525;BME280;31437;58.350;13.828;2023-03-13T08:14:51;98255.16;;;0.31;100.00
45525;BME280;31437;58.350;13.828;2023-03-13T08:17:17;98244.63;;;0.35;100.00
45525;BME280;31437;58.350;13.828;2023-03-13T08:19:42;98249.59;;;0.40;100.00
45525;BME280;31437;58.350;13.828;2023-03-13T08:22:08;98238.25;;;0.44;100.00
45525;BME280;31437;58.350;13.828;2023-03-13T08:24:33;98226.94;;;0.47;100.00
45525;BME280;31437;58.350;13.828;2023-03-13T08:26:58;98225.00;;;0.52;100.00
45525;BME280;31437;58.350;13.828;2023-03-13T08:29:23;98227.41;;;0.56;100.00
45525;BME280;31437;58.350;13.828;2023-03-13T08:31:49;98223.75;;;0.60;100.00
45525;BME280;31437;58.350;13.828;2023-03-13T08:34:16;98214.97;;;0.64;100.00
45525;BME280;31437;58.350;13.828;2023-03-13T08:36:42;98215.69;;;0.68;100.00
45525;BME280;31437;58.350;13.828;2023-03-13T08:39:12;98200.22;;;0.68;100.00
45525;BME280;31437;58.350;13.828;2023-03-13T08:41:37;98204.31;;;0.72;100.00
45525;BME280;31437;58.350;13.828;2023-03-13T08:44:04;98200.75;;;0.75;100.00
45525;BME280;31437;58.350;13.828;2023-03-13T08:46:31;98194.47;;;0.80;100.00
45525;BME280;31437;58.350;13.828;2023-03-13T08:48:56;98189.16;;;0.83;100.00
45525;BME280;31437;58.350;13.828;2023-03-13T08:51:23;98185.63;;;0.86;100.00
45525;BME280;31437;58.350;13.828;2023-03-13T08:53:48;98179.38;;;0.90;100.00
45525;BME280;31437;58.350;13.828;2023-03-13T08:56:15;98186.06;;;0.94;100.00
45525;BME280;31437;58.350;13.828;2023-03-13T08:58:41;98178.28;;;0.96;100.00
45525;BME280;31437;58.350;13.828;2023-03-13T09:01:08;98172.13;;;0.98;100.00
45525;BME280;31437;58.350;13.828;2023-03-13T09:03:34;98171.00;;;1.04;100.00
45525;BME280;31437;58.350;13.828;2023-03-13T09:05:59;98160.38;;;1.10;100.00
45525;BME280;31437;58.350;13.828;2023-03-13T09:08:25;98158.41;;;1.15;100.00
45525;BME280;31437;58.350;13.828;2023-03-13T09:11:01;98161.28;;;1.26;100.00
45525;BME280;31437;58.350;13.828;2023-03-13T09:13:28;98166.19;;;1.32;100.00
45525;BME280;31437;58.350;13.828;2023-03-13T09:15:57;98146.88;;;1.40;100.00
45525;BME280;31437;58.350;13.828;2023-03-13T09:18:23;98147.41;;;1.46;100.00
45525;BME280;31437;58.350;13.828;2023-03-13T09:20:48;98143.00;;;1.48;100.00
45525;BME280;31437;58.350;13.828;2023-03-13T09:23:14;98127.19;;;1.54;100.00
45525;BME280;31437;58.350;13.828;2023-03-13T09:25:39;98132.97;;;1.59;100.00
45525;BME280;31437;58.350;13.828;2023-03-13T09:28:04;98131.13;;;1.62;100.00
45525;BME280;31437;58.350;13.828;2023-03-13T09:30:30;98119.81;;;1.64;100.00
45525;BME280;31437;58.350;13.828;2023-03-13T09:32:55;98111.91;;;1.67;100.00
45525;BME280;31437;58.350;13.828;2023-03-13T09:35:20;98115.25;;;1.69;100.00
45525;BME280;31437;58.350;13.828;2023-03-13T09:37:45;98104.69;;;1.74;100.00
45525;BME280;31437;58.350;13.828;2023-03-13T09:40:14;98101.78;;;1.80;100.00
45525;BME280;31437;58.350;13.828;2023-03-13T09:45:14;98088.72;;;1.99;100.00
45525;BME280;31437;58.350;13.828;2023-03-13T09:47:45;98086.63;;;2.05;100.00
45525;BME280;31437;58.350;13.828;2023-03-13T09:52:38;98078.06;;;2.05;100.00
45525;BME280;31437;58.350;13.828;2023-03-13T09:57:34;98073.03;;;2.02;100.00
45525;BME280;31437;58.350;13.828;2023-03-13T10:00:02;98062.69;;;2.02;100.00
45525;BME280;31437;58.350;13.828;2023-03-13T10:02:31;98074.63;;;2.04;100.00
45525;BME280;31437;58.350;13.828;2023-03-13T10:05:43;98059.13;;;2.04;100.00
45525;BME280;31437;58.350;13.828;2023-03-13T10:07:43;98053.94;;;2.04;100.00
45525;BME280;31437;58.350;13.828;2023-03-13T10:10:18;98046.94;;;2.07;100.00
45525;BME280;31437;58.350;13.828;2023-03-13T10:12:46;98048.59;;;2.08;100.00
45525;BME280;31437;58.350;13.828;2023-03-13T10:17:38;98041.00;;;2.04;100.00
45525;BME280;31437;58.350;13.828;2023-03-13T10:20:23;98035.84;;;2.04;100.00
45525;BME280;31437;58.350;13.828;2023-03-13T10:22:50;98036.75;;;2.03;100.00
45525;BME280;31437;58.350;13.828;2023-03-13T10:27:48;98034.25;;;2.02;100.00
45525;BME280;31437;58.350;13.828;2023-03-13T10:32:48;98032.81;;;1.96;100.00
45525;BME280;31437;58.350;13.828;2023-03-13T10:35:20;98018.28;;;1.94;100.00
45525;BME280;31437;58.350;13.828;2023-03-13T10:37:45;98009.88;;;1.90;100.00
45525;BME280;31437;58.350;13.828;2023-03-13T10:40:12;98003.94;;;1.88;100.00
45525;BME280;31437;58.350;13.828;2023-03-13T10:42:41;97999.63;;;1.89;100.00
45525;BME280;31437;58.350;13.828;2023-03-13T10:45:12;97989.34;;;1.87;100.00
45525;BME280;31437;58.350;13.828;2023-03-13T10:47:38;97985.00;;;1.88;100.00
45525;BME280;31437;58.350;13.828;2023-03-13T10:50:04;97972.09;;;1.88;100.00
45525;BME280;31437;58.350;13.828;2023-03-13T10:55:01;97952.22;;;1.88;100.00
45525;BME280;31437;58.350;13.828;2023-03-13T10:57:30;97936.72;;;1.88;100.00
45525;BME280;31437;58.350;13.828;2023-03-13T10:59:56;97929.91;;;1.87;100.00
45525;BME280;31437;58.350;13.828;2023-03-13T11:02:34;97917.72;;;1.89;100.00
45525;BME280;31437;58.350;13.828;2023-03-13T11:07:47;97860.84;;;1.73;100.00
45525;BME280;31437;58.350;13.828;2023-03-13T11:12:38;97868.44;;;1.92;100.00
45525;BME280;31437;58.350;13.828;2023-03-13T11:15:10;97856.31;;;1.93;100.00
45525;BME280;31437;58.350;13.828;2023-03-13T11:17:38;97839.88;;;1.94;100.00
45525;BME280;31437;58.350;13.828;2023-03-13T11:27:56;97795.50;;;2.01;100.00
45525;BME280;31437;58.350;13.828;2023-03-13T11:30:32;97778.22;;;2.02;100.00
45525;BME280;31437;58.350;13.828;2023-03-13T11:33:03;97770.28;;;2.05;100.00
45525;BME280;31437;58.350;13.828;2023-03-13T11:38:01;97753.50;;;2.12;100.00
45525;BME280;31437;58.350;13.828;2023-03-13T11:43:21;97731.88;;;2.13;100.00
45525;BME280;31437;58.350;13.828;2023-03-13T11:48:30;97714.59;;;2.14;100.00
45525;BME280;31437;58.350;13.828;2023-03-13T11:56:14;97684.41;;;2.14;100.00
45525;BME280;31437;58.350;13.828;2023-03-13T12:01:26;97670.56;;;2.15;100.00
45525;BME280;31437;58.350;13.828;2023-03-13T12:04:02;97662.13;;;2.12;100.00
45525;BME280;31437;58.350;13.828;2023-03-13T12:06:30;97654.38;;;2.12;100.00
45525;BME280;31437;58.350;13.828;2023-03-13T12:09:05;97643.31;;;2.10;100.00
45525;BME280;31437;58.350;13.828;2023-03-13T12:14:01;97618.72;;;2.02;100.00
45525;BME280;31437;58.350;13.828;2023-03-13T12:16:39;97607.66;;;2.00;100.00
45525;BME280;31437;58.350;13.828;2023-03-13T12:19:08;97592.34;;;1.97;100.00
45525;BME280;31437;58.350;13.828;2023-03-13T12:21:36;97575.13;;;1.96;100.00
45525;BME280;31437;58.350;13.828;2023-03-13T12:26:41;97560.09;;;1.89;100.00
45525;BME280;31437;58.350;13.828;2023-03-13T12:29:14;97542.09;;;1.87;100.00
45525;BME280;31437;58.350;13.828;2023-03-13T12:36:43;97509.41;;;1.86;100.00
45525;BME280;31437;58.350;13.828;2023-03-13T12:39:17;97502.38;;;1.88;100.00
45525;BME280;31437;58.350;13.828;2023-03-13T12:41:51;97489.75;;;1.84;100.00
45525;BME280;31437;58.350;13.828;2023-03-13T12:44:21;97482.81;;;1.84;100.00
45525;BME280;31437;58.350;13.828;2023-03-13T12:46:53;97466.38;;;1.85;100.00
45525;BME280;31437;58.350;13.828;2023-03-13T12:52:13;97456.13;;;1.84;100.00
45525;BME280;31437;58.350;13.828;2023-03-13T12:59:54;97411.06;;;1.88;100.00
45525;BME280;31437;58.350;13.828;2023-03-13T13:02:24;97395.47;;;1.89;100.00
45525;BME280;31437;58.350;13.828;2023-03-13T13:04:51;97388.47;;;1.91;100.00
45525;BME280;31437;58.350;13.828;2023-03-13T13:07:27;97351.38;;;1.78;100.00
45525;BME280;31437;58.350;13.828;2023-03-13T13:12:28;97356.84;;;2.00;100.00
45525;BME280;31437;58.350;13.828;2023-03-13T13:14:54;97345.47;;;2.03;100.00
45525;BME280;31437;58.350;13.828;2023-03-13T13:22:49;97307.09;;;2.10;100.00
45525;BME280;31437;58.350;13.828;2023-03-13T13:32:44;97277.94;;;2.20;100.00
45525;BME280;31437;58.350;13.828;2023-03-13T13:35:26;97278.47;;;2.25;100.00
45525;BME280;31437;58.350;13.828;2023-03-13T13:37:52;97253.94;;;2.31;100.00
45525;BME280;31437;58.350;13.828;2023-03-13T13:40:19;97248.56;;;2.34;100.00
45525;BME280;31437;58.350;13.828;2023-03-13T13:42:52;97233.56;;;2.39;100.00
45525;BME280;31437;58.350;13.828;2023-03-13T13:48:20;97208.28;;;2.56;100.00
45525;BME280;31437;58.350;13.828;2023-03-13T13:53:33;97190.28;;;2.54;100.00
45525;BME280;31437;58.350;13.828;2023-03-13T13:56:24;97187.31;;;2.47;100.00
45525;BME280;31437;58.350;13.828;2023-03-13T13:58:51;97181.50;;;2.44;100.00
45525;BME280;31437;58.350;13.828;2023-03-13T14:01:20;97163.59;;;2.41;100.00
45525;BME280;31437;58.350;13.828;2023-03-13T14:03:45;97157.72;;;2.39;100.00
45525;BME280;31437;58.350;13.828;2023-03-13T14:08:36;97147.75;;;2.45;100.00
45525;BME280;31437;58.350;13.828;2023-03-13T14:13:38;97135.34;;;2.50;100.00
45525;BME280;31437;58.350;13.828;2023-03-13T14:19:01;97120.41;;;2.54;100.00
45525;BME280;31437;58.350;13.828;2023-03-13T14:21:26;97117.50;;;2.59;100.00
45525;BME280;31437;58.350;13.828;2023-03-13T14:23:52;97104.97;;;2.65;100.00
45525;BME280;31437;58.350;13.828;2023-03-13T14:33:49;97074.56;;;3.04;100.00
45525;BME280;31437;58.350;13.828;2023-03-13T14:36:14;97070.69;;;3.10;100.00
45525;BME280;31437;58.350;13.828;2023-03-13T14:38:46;97075.75;;;3.11;100.00